Time;durP1;ratioP1;P1;durP2;ratioP2;P2;SDS_P1;SDS_P2;PMS_P1;PMS_P2;Temp;Humidity;BMP_temperature;BMP_pressure;BME280_temperature;BME280_humidity;BME280_pressure;Samples;Min_cycle;Max_cycle;Signal;HPM_P1;HPM_P2
2023/10/20 00:00:42;;;;;;;15.43;7.07;;;;;;;;;;5039935;28;20036;-70
2023/10/20 00:03:08;;;;;;;14.45;7.43;;;;;;;;;;5040602;28;20059;-70
2023/10/20 00:05:34;;;;;;;15.23;7.65;;;;;;;;;;5045194;28;20113;-70
2023/10/20 00:07:59;;;;;;;16.10;7.47;;;;;;;;;;5041371;28;20033;-70
2023/10/20 00:10:24;;;;;;;11.00;6.70;;;;;;;;;;5042430;28;20017;-70
2023/10/20 00:12:50;;;;;;;6.17;2.10;;;;;;;;;;5039296;28;20477;-70
2023/10/20 00:15:17;;;;;;;12.35;7.57;;;;;;;;;;5048243;28;20251;-70
2023/10/20 00:17:42;;;;;;;14.88;7.47;;;;;;;;;;5040069;28;20024;-70
2023/10/20 00:20:09;;;;;;;15.02;7.32;;;;;;;;;;5040769;28;20455;-70
2023/10/20 00:22:34;;;;;;;12.63;7.50;;;;;;;;;;5034805;28;20031;-70
2023/10/20 00:25:00;;;;;;;13.10;8.00;;;;;;;;;;5046859;28;20104;-70
2023/10/20 00:27:25;;;;;;;16.60;7.72;;;;;;;;;;5041996;28;20025;-70
2023/10/20 00:29:50;;;;;;;10.18;6.28;;;;;;;;;;5043983;28;20017;-70
2023/10/20 00:32:15;;;;;;;12.70;7.60;;;;;;;;;;5044769;28;20025;-70
2023/10/20 00:34:41;;;;;;;16.15;8.00;;;;;;;;;;5038355;28;20020;-70
2023/10/20 00:37:06;;;;;;;7.43;4.20;;;;;;;;;;5037852;28;20040;-70
2023/10/20 00:39:34;;;;;;;12.73;7.83;;;;;;;;;;5037533;28;20529;-70
2023/10/20 00:41:59;;;;;;;16.27;8.52;;;;;;;;;;5026039;28;20288;-70
2023/10/20 00:44:25;;;;;;;6.03;3.38;;;;;;;;;;5024250;28;20091;-70
2023/10/20 00:46:50;;;;;;;12.18;7.70;;;;;;;;;;5029101;28;20389;-70
2023/10/20 00:49:15;;;;;;;12.88;5.47;;;;;;;;;;5017503;28;20152;-70
2023/10/20 00:51:40;;;;;;;17.05;7.47;;;;;;;;;;5038559;28;20029;-70
2023/10/20 00:54:07;;;;;;;13.60;6.65;;;;;;;;;;5027030;28;20028;-70
2023/10/20 00:56:33;;;;;;;10.93;6.97;;;;;;;;;;5021663;28;20022;-70
2023/10/20 00:58:58;;;;;;;12.17;6.67;;;;;;;;;;5016127;28;20152;-70
2023/10/20 01:01:23;;;;;;;12.70;6.70;;;;;;;;;;5025267;28;20017;-70
2023/10/20 01:03:49;;;;;;;11.80;5.63;;;;;;;;;;5019532;28;20075;-69
2023/10/20 01:06:14;;;;;;;7.55;4.97;;;;;;;;;;5020954;28;20276;-70
2023/10/20 01:08:39;;;;;;;11.13;7.05;;;;;;;;;;5029050;28;20135;-70
2023/10/20 01:11:05;;;;;;;8.93;5.82;;;;;;;;;;5030130;28;20070;-70
2023/10/20 01:13:30;;;;;;;11.35;6.75;;;;;;;;;;5022815;28;20079;-70
2023/10/20 01:15:56;;;;;;;13.38;6.45;;;;;;;;;;5017308;28;20030;-70
2023/10/20 01:18:21;;;;;;;11.30;6.90;;;;;;;;;;5017022;28;20291;-70
2023/10/20 01:20:46;;;;;;;11.40;6.53;;;;;;;;;;5028848;28;20477;-70
2023/10/20 01:23:11;;;;;;;10.27;6.97;;;;;;;;;;5016707;28;20029;-70
2023/10/20 01:25:36;;;;;;;15.27;7.63;;;;;;;;;;5041444;28;20265;-70
2023/10/20 01:28:03;;;;;;;10.40;5.77;;;;;;;;;;5018914;28;20030;-70
2023/10/20 01:30:28;;;;;;;6.97;4.70;;;;;;;;;;5018692;28;20053;-70
2023/10/20 01:32:53;;;;;;;11.55;5.32;;;;;;;;;;5022205;28;20068;-70
2023/10/20 01:35:19;;;;;;;10.33;5.83;;;;;;;;;;5022462;28;20009;-70
2023/10/20 01:37:44;;;;;;;9.17;5.30;;;;;;;;;;5014895;28;20661;-70
2023/10/20 01:40:11;;;;;;;7.17;4.00;;;;;;;;;;5020220;28;20271;-70
2023/10/20 01:42:37;;;;;;;10.68;5.43;;;;;;;;;;5018056;28;20316;-70
2023/10/20 01:45:02;;;;;;;7.80;4.20;;;;;;;;;;5019253;28;20544;-70
2023/10/20 01:47:27;;;;;;;7.95;4.03;;;;;;;;;;5018665;28;20026;-71
2023/10/20 01:49:53;;;;;;;7.30;4.10;;;;;;;;;;5028852;28;20026;-70
2023/10/20 01:52:18;;;;;;;5.33;3.27;;;;;;;;;;5023233;28;20420;-70
2023/10/20 01:54:43;;;;;;;9.45;3.90;;;;;;;;;;5018136;28;20338;-70
2023/10/20 01:57:09;;;;;;;5.97;3.70;;;;;;;;;;5022008;28;20029;-70
2023/10/20 01:59:34;;;;;;;6.32;3.85;;;;;;;;;;5021476;28;20259;-70
2023/10/20 02:01:59;;;;;;;8.23;2.38;;;;;;;;;;5028027;28;20378;-70
2023/10/20 02:04:24;;;;;;;5.70;3.03;;;;;;;;;;5028689;28;20061;-70
2023/10/20 02:06:49;;;;;;;6.03;3.45;;;;;;;;;;5022397;28;20032;-70
2023/10/20 02:09:15;;;;;;;5.20;3.28;;;;;;;;;;5023026;28;20013;-70
2023/10/20 02:11:40;;;;;;;5.47;3.20;;;;;;;;;;5021131;28;20033;-70
2023/10/20 02:14:05;;;;;;;4.70;2.70;;;;;;;;;;5022831;28;20057;-70
2023/10/20 02:16:31;;;;;;;6.53;3.00;;;;;;;;;;5029460;28;20276;-70
2023/10/20 02:18:56;;;;;;;4.22;2.58;;;;;;;;;;5021825;28;20314;-70
2023/10/20 02:21:21;;;;;;;3.15;2.00;;;;;;;;;;5022079;28;20018;-70
2023/10/20 02:23:46;;;;;;;3.58;2.40;;;;;;;;;;5020935;28;20080;-70
2023/10/20 02:26:12;;;;;;;3.33;2.10;;;;;;;;;;5022756;28;20022;-70
2023/10/20 02:28:37;;;;;;;6.50;2.37;;;;;;;;;;5022968;28;20501;-70
2023/10/20 02:31:13;;;;;;;2.67;1.58;;;;;;;;;;5033401;28;20288;-70
2023/10/20 02:33:38;;;;;;;5.30;2.53;;;;;;;;;;5021046;28;20109;-70
2023/10/20 02:36:03;;;;;;;3.55;2.25;;;;;;;;;;5026585;28;20100;-70
2023/10/20 02:38:29;;;;;;;3.67;2.20;;;;;;;;;;5021506;28;20029;-70
2023/10/20 02:40:54;;;;;;;4.93;1.20;;;;;;;;;;5021580;28;20021;-70
2023/10/20 02:43:23;;;;;;;3.10;1.80;;;;;;;;;;5026145;28;20021;-70
2023/10/20 02:45:49;;;;;;;3.53;2.22;;;;;;;;;;5023641;28;20044;-70
2023/10/20 02:48:14;;;;;;;5.40;1.80;;;;;;;;;;5023026;28;20112;-69
2023/10/20 02:50:40;;;;;;;4.15;2.03;;;;;;;;;;5019354;28;20418;-70
2023/10/20 02:53:06;;;;;;;4.97;2.13;;;;;;;;;;5023070;28;20018;-70
2023/10/20 02:55:31;;;;;;;5.57;1.90;;;;;;;;;;5021564;28;20100;-70
2023/10/20 02:57:57;;;;;;;2.92;1.95;;;;;;;;;;5030499;28;20271;-70
2023/10/20 03:00:22;;;;;;;3.13;1.70;;;;;;;;;;5027243;28;20032;-70
2023/10/20 03:02:48;;;;;;;2.77;2.00;;;;;;;;;;5020588;28;20553;-70
2023/10/20 03:05:13;;;;;;;5.15;1.60;;;;;;;;;;5020294;28;20493;-70
2023/10/20 03:07:38;;;;;;;2.22;1.75;;;;;;;;;;5023779;28;20030;-69
2023/10/20 03:10:04;;;;;;;4.93;1.50;;;;;;;;;;5025111;28;20066;-70
2023/10/20 03:12:29;;;;;;;2.90;1.92;;;;;;;;;;5032029;28;20032;-70
2023/10/20 03:14:54;;;;;;;2.57;1.70;;;;;;;;;;5028023;28;20018;-69
2023/10/20 03:17:19;;;;;;;3.20;1.97;;;;;;;;;;5027155;28;20830;-70
2023/10/20 03:19:45;;;;;;;5.43;2.00;;;;;;;;;;5020105;28;20280;-70
2023/10/20 03:22:10;;;;;;;5.85;1.70;;;;;;;;;;5023505;28;20256;-69
2023/10/20 03:24:36;;;;;;;3.85;1.92;;;;;;;;;;5027207;28;20013;-70
2023/10/20 03:27:01;;;;;;;5.67;1.90;;;;;;;;;;5020759;28;20030;-70
2023/10/20 03:29:26;;;;;;;4.43;1.90;;;;;;;;;;5022085;28;20248;-70
2023/10/20 03:31:51;;;;;;;4.93;2.10;;;;;;;;;;5036522;28;20625;-70
2023/10/20 03:34:16;;;;;;;5.75;2.10;;;;;;;;;;5023684;28;20022;-70
2023/10/20 03:36:41;;;;;;;4.30;2.40;;;;;;;;;;5020294;28;20030;-70
2023/10/20 03:39:19;;;;;;;8.13;2.03;;;;;;;;;;5029602;28;20396;-69
2023/10/20 03:41:45;;;;;;;1.73;1.33;;;;;;;;;;5021482;28;20264;-70
2023/10/20 03:44:10;;;;;;;3.67;1.75;;;;;;;;;;5031742;28;20068;-70
2023/10/20 03:46:43;;;;;;;4.15;2.13;;;;;;;;;;5031612;28;20024;-70
2023/10/20 03:49:08;;;;;;;6.85;2.47;;;;;;;;;;5023933;28;20396;-69
2023/10/20 03:51:36;;;;;;;4.10;2.33;;;;;;;;;;5028761;28;20285;-70
2023/10/20 03:54:03;;;;;;;13.38;2.42;;;;;;;;;;5036069;28;20612;-70
2023/10/20 03:56:28;;;;;;;4.55;2.28;;;;;;;;;;5030776;28;20021;-70
2023/10/20 03:58:53;;;;;;;5.43;1.48;;;;;;;;;;5028947;28;20025;-70
2023/10/20 04:01:19;;;;;;;4.83;2.30;;;;;;;;;;5033596;28;20010;-70
2023/10/20 04:03:49;;;;;;;2.80;1.98;;;;;;;;;;5033185;28;20778;-70
2023/10/20 04:06:14;;;;;;;4.90;2.90;;;;;;;;;;5034754;28;20064;-70
2023/10/20 04:08:39;;;;;;;4.00;2.60;;;;;;;;;;5041958;28;20041;-70
2023/10/20 04:11:05;;;;;;;4.50;2.23;;;;;;;;;;5030006;28;20255;-70
2023/10/20 04:13:32;;;;;;;3.58;1.95;;;;;;;;;;5033693;28;20257;-69
2023/10/20 04:15:57;;;;;;;5.93;2.20;;;;;;;;;;5037246;28;20532;-70
2023/10/20 04:18:22;;;;;;;4.10;2.20;;;;;;;;;;5030520;28;20108;-70
2023/10/20 04:20:50;;;;;;;4.77;2.40;;;;;;;;;;5032257;28;20393;-70
2023/10/20 04:23:16;;;;;;;3.05;1.88;;;;;;;;;;5027516;28;20267;-70
2023/10/20 04:25:55;;;;;;;4.35;2.10;;;;;;;;;;5035093;28;20385;-70
2023/10/20 04:28:20;;;;;;;3.58;2.30;;;;;;;;;;5028858;28;20018;-70
2023/10/20 04:52:06;;;;;;;3.35;1.60;;;;;;;;;;5029507;28;20020;-72
2023/10/20 05:02:39;;;;;;;1.77;1.15;;;;;;;;;;5026902;28;20039;-70
2023/10/20 05:05:11;;;;;;;2.65;1.50;;;;;;;;;;5027572;28;20417;-70
2023/10/20 05:07:36;;;;;;;2.42;1.30;;;;;;;;;;5027605;28;20032;-70
2023/10/20 05:10:01;;;;;;;4.43;1.48;;;;;;;;;;5043054;28;20021;-70
2023/10/20 05:12:28;;;;;;;2.13;1.50;;;;;;;;;;5023161;28;20462;-70
2023/10/20 05:14:54;;;;;;;3.05;1.42;;;;;;;;;;5024811;28;20014;-70
2023/10/20 05:17:20;;;;;;;2.47;1.58;;;;;;;;;;5026980;28;20032;-70
2023/10/20 05:19:47;;;;;;;3.85;1.70;;;;;;;;;;5027123;28;20148;-70
2023/10/20 05:22:13;;;;;;;3.58;1.42;;;;;;;;;;5027471;28;20052;-70
2023/10/20 05:24:38;;;;;;;3.00;1.60;;;;;;;;;;5022273;28;20056;-70
2023/10/20 05:27:03;;;;;;;3.23;1.80;;;;;;;;;;5027253;28;20048;-70
2023/10/20 05:29:28;;;;;;;4.72;1.65;;;;;;;;;;5025102;28;20370;-70
2023/10/20 05:31:54;;;;;;;4.07;1.70;;;;;;;;;;5037142;28;20026;-70
2023/10/20 05:34:19;;;;;;;2.90;1.40;;;;;;;;;;5022564;28;20425;-70
2023/10/20 05:36:44;;;;;;;2.57;1.53;;;;;;;;;;5021456;28;20021;-70
2023/10/20 05:39:09;;;;;;;4.90;1.70;;;;;;;;;;5018064;28;20413;-70
2023/10/20 05:41:34;;;;;;;2.88;1.50;;;;;;;;;;5022889;28;20280;-70
2023/10/20 05:44:01;;;;;;;4.63;1.70;;;;;;;;;;5024925;28;20018;-70
2023/10/20 05:46:26;;;;;;;9.35;1.58;;;;;;;;;;5022665;28;20495;-70
2023/10/20 05:48:51;;;;;;;3.83;1.58;;;;;;;;;;5018540;28;20048;-70
2023/10/20 05:51:16;;;;;;;4.65;2.10;;;;;;;;;;5018749;28;20017;-70
2023/10/20 05:53:42;;;;;;;2.10;1.40;;;;;;;;;;5021881;28;20030;-70
2023/10/20 05:56:07;;;;;;;4.13;2.10;;;;;;;;;;5025048;28;20029;-70
2023/10/20 05:58:35;;;;;;;5.03;2.00;;;;;;;;;;5022159;28;20272;-71
2023/10/20 06:01:03;;;;;;;3.70;2.28;;;;;;;;;;5025860;28;20386;-70
2023/10/20 06:03:28;;;;;;;2.78;2.15;;;;;;;;;;5022373;28;20053;-71
2023/10/20 06:05:57;;;;;;;5.13;2.42;;;;;;;;;;5021827;28;20103;-71
2023/10/20 06:08:22;;;;;;;3.25;2.30;;;;;;;;;;5021398;28;20029;-71
2023/10/20 06:10:47;;;;;;;4.10;2.73;;;;;;;;;;5018901;28;20554;-71
2023/10/20 06:13:13;;;;;;;5.17;2.87;;;;;;;;;;5023104;28;20264;-71
2023/10/20 06:15:39;;;;;;;4.65;2.35;;;;;;;;;;5019958;28;20530;-71
2023/10/20 06:18:04;;;;;;;6.25;2.88;;;;;;;;;;5021256;28;20040;-71
2023/10/20 06:20:29;;;;;;;4.82;2.45;;;;;;;;;;5020432;28;20073;-71
2023/10/20 06:22:55;;;;;;;3.50;2.67;;;;;;;;;;5026419;28;20738;-71
2023/10/20 06:25:20;;;;;;;6.20;2.83;;;;;;;;;;5022314;28;20303;-71
2023/10/20 06:27:45;;;;;;;9.37;3.67;;;;;;;;;;5026036;28;20029;-71
2023/10/20 06:30:23;;;;;;;5.70;3.07;;;;;;;;;;5019840;28;20256;-71
2023/10/20 06:33:24;;;;;;;5.57;2.45;;;;;;;;;;5017902;28;20257;-71
2023/10/20 06:35:52;;;;;;;7.68;3.53;;;;;;;;;;5020397;28;20041;-71
2023/10/20 06:38:30;;;;;;;6.45;3.40;;;;;;;;;;5021475;28;20065;-71
2023/10/20 06:40:56;;;;;;;5.57;3.55;;;;;;;;;;5027685;28;20061;-71
2023/10/20 06:43:21;;;;;;;6.95;4.15;;;;;;;;;;5029559;28;20059;-71
2023/10/20 06:45:54;;;;;;;7.07;4.15;;;;;;;;;;5022834;28;20058;-71
2023/10/20 06:48:20;;;;;;;7.78;3.92;;;;;;;;;;5020422;28;20024;-72
2023/10/20 06:50:45;;;;;;;4.28;1.95;;;;;;;;;;5023896;28;20061;-72
2023/10/20 06:53:11;;;;;;;12.73;4.07;;;;;;;;;;5028393;28;20097;-72
2023/10/20 06:55:40;;;;;;;5.37;3.60;;;;;;;;;;5024341;28;20494;-71
2023/10/20 06:58:05;;;;;;;8.65;4.63;;;;;;;;;;5023554;28;20275;-70
2023/10/20 07:00:30;;;;;;;9.50;4.57;;;;;;;;;;5025128;28;20029;-71
2023/10/20 07:02:55;;;;;;;4.20;2.67;;;;;;;;;;5025536;28;20379;-71
2023/10/20 07:05:23;;;;;;;6.27;4.00;;;;;;;;;;5025970;28;20105;-71
2023/10/20 07:07:48;;;;;;;8.30;4.15;;;;;;;;;;5024813;28;20032;-71
2023/10/20 07:10:14;;;;;;;4.37;3.27;;;;;;;;;;5026986;28;20018;-71
2023/10/20 07:12:39;;;;;;;8.38;4.38;;;;;;;;;;5024266;28;20053;-72
2023/10/20 07:15:05;;;;;;;8.10;3.83;;;;;;;;;;5020113;28;20014;-71
2023/10/20 07:17:30;;;;;;;7.68;4.55;;;;;;;;;;5024159;28;20806;-71
2023/10/20 07:22:59;;;;;;;9.18;5.10;;;;;;;;;;5023735;28;20620;-69
2023/10/20 07:25:25;;;;;;;9.07;5.32;;;;;;;;;;5031943;28;20092;-70
2023/10/20 07:27:51;;;;;;;10.75;5.57;;;;;;;;;;5027317;28;20505;-70
2023/10/20 07:30:19;;;;;;;7.18;3.88;;;;;;;;;;5021720;28;20097;-71
2023/10/20 07:32:44;;;;;;;8.80;4.03;;;;;;;;;;5027198;28;20017;-71
2023/10/20 07:35:11;;;;;;;8.10;5.00;;;;;;;;;;5030181;28;20062;-71
2023/10/20 07:37:36;;;;;;;10.10;5.13;;;;;;;;;;5031169;28;20029;-71
2023/10/20 07:40:04;;;;;;;14.10;5.53;;;;;;;;;;5029337;28;20041;-72
2023/10/20 07:42:30;;;;;;;9.60;5.35;;;;;;;;;;5028717;28;20473;-71
2023/10/20 07:44:56;;;;;;;12.82;5.43;;;;;;;;;;5028111;28;20028;-71
2023/10/20 07:47:21;;;;;;;10.73;5.50;;;;;;;;;;5027660;28;20038;-71
2023/10/20 07:49:46;;;;;;;12.07;5.17;;;;;;;;;;5026941;28;20742;-70
2023/10/20 07:52:11;;;;;;;8.17;4.10;;;;;;;;;;5027496;28;20028;-71
2023/10/20 07:54:37;;;;;;;9.68;5.50;;;;;;;;;;5030501;28;20260;-71
2023/10/20 07:57:02;;;;;;;12.30;6.23;;;;;;;;;;5025976;28;20473;-71
2023/10/20 07:59:28;;;;;;;8.68;5.63;;;;;;;;;;5029434;28;20334;-71
2023/10/20 08:01:54;;;;;;;8.43;5.03;;;;;;;;;;5030262;28;20022;-72
2023/10/20 08:04:19;;;;;;;7.53;4.88;;;;;;;;;;5031222;28;20033;-71
2023/10/20 08:06:44;;;;;;;11.38;5.78;;;;;;;;;;5030865;28;20017;-71
2023/10/20 08:09:11;;;;;;;12.03;5.43;;;;;;;;;;5030641;28;20013;-71
2023/10/20 08:11:36;;;;;;;10.85;5.43;;;;;;;;;;5030780;28;20268;-71
2023/10/20 08:14:02;;;;;;;10.68;5.93;;;;;;;;;;5030706;28;20441;-71
2023/10/20 08:16:27;;;;;;;9.35;5.22;;;;;;;;;;5030740;28;20072;-71
2023/10/20 08:18:52;;;;;;;9.37;5.90;;;;;;;;;;5030549;28;20032;-71
2023/10/20 08:21:19;;;;;;;18.75;6.65;;;;;;;;;;5029155;28;20814;-70
2023/10/20 08:23:44;;;;;;;13.60;6.88;;;;;;;;;;5028532;28;20018;-70
2023/10/20 08:26:16;;;;;;;13.20;6.10;;;;;;;;;;5025131;28;20151;-71
2023/10/20 08:28:41;;;;;;;10.75;6.40;;;;;;;;;;5029368;28;20288;-71
2023/10/20 08:31:08;;;;;;;15.13;6.03;;;;;;;;;;5026575;28;20393;-71
2023/10/20 08:33:33;;;;;;;18.63;6.25;;;;;;;;;;5028896;28;20061;-71
2023/10/20 08:35:59;;;;;;;6.90;3.97;;;;;;;;;;5028295;28;20056;-70
2023/10/20 08:38:24;;;;;;;13.35;6.53;;;;;;;;;;5029508;28;20118;-71
2023/10/20 08:40:49;;;;;;;15.87;7.00;;;;;;;;;;5027553;28;20028;-71
2023/10/20 08:43:14;;;;;;;13.23;6.70;;;;;;;;;;5029261;28;20263;-71
2023/10/20 08:45:40;;;;;;;10.30;5.83;;;;;;;;;;5028441;28;20521;-70
2023/10/20 08:48:05;;;;;;;13.82;5.45;;;;;;;;;;5029741;28;20291;-71
2023/10/20 08:50:31;;;;;;;10.93;6.25;;;;;;;;;;5027483;28;20017;-71
2023/10/20 08:52:57;;;;;;;11.05;6.60;;;;;;;;;;5030217;28;20496;-71
2023/10/20 08:55:23;;;;;;;17.42;4.47;;;;;;;;;;5025546;28;20508;-74
2023/10/20 08:57:48;;;;;;;11.07;6.28;;;;;;;;;;5027354;28;20021;-74
2023/10/20 09:00:20;;;;;;;10.65;6.32;;;;;;;;;;5021875;28;20631;-71
2023/10/20 09:02:46;;;;;;;12.55;6.25;;;;;;;;;;5024285;28;20033;-71
2023/10/20 09:05:11;;;;;;;10.38;5.95;;;;;;;;;;5027035;28;20021;-71
2023/10/20 09:07:36;;;;;;;11.93;6.70;;;;;;;;;;5025336;28;20018;-71
2023/10/20 09:10:01;;;;;;;12.70;6.30;;;;;;;;;;5026005;28;20272;-72
2023/10/20 09:12:28;;;;;;;10.20;5.23;;;;;;;;;;5029186;28;20319;-72
2023/10/20 09:14:56;;;;;;;14.52;6.65;;;;;;;;;;5028942;28;20347;-70
2023/10/20 09:17:25;;;;;;;17.05;5.90;;;;;;;;;;5026831;28;20033;-71
2023/10/20 09:19:50;;;;;;;12.52;6.43;;;;;;;;;;5028561;28;20025;-71
2023/10/20 09:22:25;;;;;;;10.35;6.20;;;;;;;;;;5026591;28;20079;-70
2023/10/20 09:24:51;;;;;;;13.77;6.15;;;;;;;;;;5023142;28;20370;-71
2023/10/20 09:27:16;;;;;;;11.43;6.25;;;;;;;;;;5022656;28;20014;-71
2023/10/20 09:29:41;;;;;;;8.13;5.80;;;;;;;;;;5022801;28;20018;-71
2023/10/20 09:32:07;;;;;;;19.37;6.47;;;;;;;;;;5020714;28;20680;-71
2023/10/20 09:34:32;;;;;;;12.45;6.30;;;;;;;;;;5023535;28;20286;-71
2023/10/20 09:36:58;;;;;;;14.57;6.10;;;;;;;;;;5024313;28;20025;-70
2023/10/20 09:39:33;;;;;;;8.65;5.75;;;;;;;;;;5018981;28;20353;-71
2023/10/20 09:42:01;;;;;;;9.63;5.88;;;;;;;;;;5023867;28;20540;-71
2023/10/20 09:44:34;;;;;;;10.35;4.95;;;;;;;;;;5024124;28;20029;-71
2023/10/20 09:47:10;;;;;;;12.50;6.20;;;;;;;;;;5016260;28;20049;-71
2023/10/20 09:49:36;;;;;;;10.65;5.72;;;;;;;;;;5015202;28;20045;-71
2023/10/20 09:52:02;;;;;;;9.57;5.78;;;;;;;;;;5018920;28;20021;-71
2023/10/20 09:54:29;;;;;;;9.80;5.97;;;;;;;;;;5020570;28;20049;-71
2023/10/20 09:56:55;;;;;;;13.63;5.93;;;;;;;;;;5022924;28;20264;-70
2023/10/20 09:59:21;;;;;;;13.38;6.80;;;;;;;;;;5015579;28;20091;-71
2023/10/20 10:01:47;;;;;;;13.23;6.43;;;;;;;;;;5018486;28;20022;-71
2023/10/20 10:04:13;;;;;;;11.13;6.47;;;;;;;;;;5013905;28;20031;-71
2023/10/20 10:06:38;;;;;;;11.65;6.80;;;;;;;;;;5017983;28;20373;-70
2023/10/20 10:09:04;;;;;;;14.10;6.43;;;;;;;;;;5022546;28;20052;-71
2023/10/20 10:11:30;;;;;;;10.95;6.22;;;;;;;;;;5023264;28;20456;-71
2023/10/20 10:13:59;;;;;;;10.55;6.55;;;;;;;;;;5020910;28;20021;-71
2023/10/20 10:16:25;;;;;;;14.05;7.15;;;;;;;;;;5019366;28;20441;-70
2023/10/20 10:18:54;;;;;;;14.57;6.68;;;;;;;;;;5020199;28;20025;-71
2023/10/20 10:21:26;;;;;;;11.32;6.07;;;;;;;;;;5030229;28;20017;-71
2023/10/20 10:24:07;;;;;;;10.73;6.78;;;;;;;;;;5022030;28;20026;-71
2023/10/20 10:26:32;;;;;;;10.43;6.32;;;;;;;;;;5027421;28;20021;-71
2023/10/20 10:28:58;;;;;;;10.45;6.25;;;;;;;;;;5025460;28;20421;-72
2023/10/20 10:31:32;;;;;;;11.20;5.93;;;;;;;;;;5025567;28;20521;-72
2023/10/20 10:34:01;;;;;;;12.55;6.53;;;;;;;;;;5032709;28;20021;-70
2023/10/20 10:36:26;;;;;;;12.45;6.00;;;;;;;;;;5026358;28;20108;-72
2023/10/20 10:38:51;;;;;;;9.87;5.93;;;;;;;;;;5022754;28;20452;-72
2023/10/20 10:41:22;;;;;;;8.00;5.20;;;;;;;;;;5034838;28;20021;-71
2023/10/20 10:43:51;;;;;;;9.82;6.25;;;;;;;;;;5025949;28;20488;-72
2023/10/20 10:46:16;;;;;;;9.98;6.40;;;;;;;;;;5023293;28;20025;-72
2023/10/20 10:48:45;;;;;;;7.50;5.37;;;;;;;;;;5025025;28;20026;-72
2023/10/20 10:51:10;;;;;;;7.05;4.28;;;;;;;;;;5027312;28;20275;-72
2023/10/20 10:53:35;;;;;;;10.10;6.53;;;;;;;;;;5027920;28;20029;-71
2023/10/20 10:56:01;;;;;;;10.33;6.13;;;;;;;;;;5032296;28;20432;-72
2023/10/20 10:58:26;;;;;;;5.95;4.55;;;;;;;;;;5045151;28;20111;-72
2023/10/20 11:00:54;;;;;;;13.90;4.75;;;;;;;;;;5046282;28;20029;-71
2023/10/20 11:03:19;;;;;;;15.55;5.80;;;;;;;;;;5053967;28;20072;-71
2023/10/20 11:05:45;;;;;;;8.13;5.22;;;;;;;;;;5044202;28;20029;-72
2023/10/20 11:08:10;;;;;;;9.40;5.20;;;;;;;;;;5043811;28;20014;-72
2023/10/20 11:10:37;;;;;;;10.60;5.43;;;;;;;;;;5037076;28;20279;-72
2023/10/20 11:13:07;;;;;;;8.55;5.28;;;;;;;;;;5029847;28;20324;-72
2023/10/20 11:15:32;;;;;;;9.02;5.07;;;;;;;;;;5043292;28;20099;-72
2023/10/20 11:17:59;;;;;;;8.18;5.40;;;;;;;;;;5039050;28;20033;-72
2023/10/20 11:20:24;;;;;;;11.82;4.68;;;;;;;;;;5038651;28;20489;-72
2023/10/20 11:22:53;;;;;;;10.85;5.35;;;;;;;;;;5039957;28;20025;-72
2023/10/20 11:25:19;;;;;;;7.78;5.10;;;;;;;;;;5028395;28;20029;-72
2023/10/20 11:27:51;;;;;;;11.60;5.75;;;;;;;;;;5024996;28;20481;-73
2023/10/20 11:30:16;;;;;;;11.05;5.55;;;;;;;;;;5024880;28;20029;-71
2023/10/20 11:32:41;;;;;;;13.13;4.32;;;;;;;;;;5027343;28;20355;-72
2023/10/20 11:35:07;;;;;;;7.60;4.20;;;;;;;;;;5030429;28;20377;-72
2023/10/20 11:37:32;;;;;;;14.40;5.30;;;;;;;;;;5029265;28;20041;-71
2023/10/20 11:39:57;;;;;;;15.25;6.13;;;;;;;;;;5025726;28;20029;-72
2023/10/20 11:42:22;;;;;;;8.82;4.93;;;;;;;;;;5024182;28;20143;-72
2023/10/20 11:44:48;;;;;;;13.88;5.75;;;;;;;;;;5026981;28;20057;-71
2023/10/20 11:47:13;;;;;;;9.13;4.87;;;;;;;;;;5022941;28;20030;-72
2023/10/20 11:49:38;;;;;;;8.77;5.83;;;;;;;;;;5034629;28;20275;-72
2023/10/20 11:52:07;;;;;;;8.40;5.03;;;;;;;;;;5034556;28;20271;-71
2023/10/20 11:54:32;;;;;;;9.82;5.00;;;;;;;;;;5030235;28;20265;-72
2023/10/20 11:56:57;;;;;;;8.67;4.77;;;;;;;;;;5023095;28;20034;-72
2023/10/20 11:59:22;;;;;;;7.77;3.90;;;;;;;;;;5026554;28;20315;-71
2023/10/20 12:01:47;;;;;;;5.73;2.93;;;;;;;;;;5027988;28;20284;-72
2023/10/20 12:04:13;;;;;;;9.10;5.30;;;;;;;;;;5024464;28;20087;-72
2023/10/20 12:06:38;;;;;;;7.45;4.20;;;;;;;;;;5025865;28;20264;-72
2023/10/20 12:09:10;;;;;;;7.45;3.53;;;;;;;;;;5024640;28;20551;-72
2023/10/20 12:11:36;;;;;;;11.45;4.78;;;;;;;;;;5025548;28;20021;-72
2023/10/20 12:14:01;;;;;;;8.00;4.57;;;;;;;;;;5024894;28;20033;-71
2023/10/20 12:16:27;;;;;;;6.72;3.47;;;;;;;;;;5027409;28;20025;-71
2023/10/20 12:18:52;;;;;;;4.40;2.88;;;;;;;;;;5035053;28;20029;-72
2023/10/20 12:21:18;;;;;;;7.53;4.45;;;;;;;;;;5024796;28;20363;-72
2023/10/20 12:23:43;;;;;;;11.65;4.45;;;;;;;;;;5034756;28;20028;-71
2023/10/20 12:26:08;;;;;;;12.00;4.65;;;;;;;;;;5026530;28;20408;-71
2023/10/20 12:28:33;;;;;;;7.03;4.40;;;;;;;;;;5029166;28;20547;-71
2023/10/20 12:31:01;;;;;;;7.70;4.93;;;;;;;;;;5024199;28;20022;-72
2023/10/20 12:33:27;;;;;;;7.50;4.68;;;;;;;;;;5024334;28;20287;-72
2023/10/20 12:35:53;;;;;;;6.18;3.88;;;;;;;;;;5022393;28;20053;-72
2023/10/20 12:38:18;;;;;;;6.07;3.10;;;;;;;;;;5027926;28;20441;-71
2023/10/20 12:40:43;;;;;;;8.37;4.80;;;;;;;;;;5023146;28;20087;-71
2023/10/20 12:43:11;;;;;;;11.83;4.57;;;;;;;;;;5035129;28;20264;-72
2023/10/20 12:45:38;;;;;;;3.05;2.20;;;;;;;;;;5020141;28;20394;-72
2023/10/20 12:48:03;;;;;;;9.27;4.47;;;;;;;;;;5021421;28;20047;-71
2023/10/20 12:50:32;;;;;;;5.03;3.08;;;;;;;;;;5027673;28;20075;-71
2023/10/20 12:52:58;;;;;;;7.47;4.10;;;;;;;;;;5026256;28;20014;-71
2023/10/20 12:55:24;;;;;;;7.80;4.88;;;;;;;;;;5024566;28;20032;-72
2023/10/20 12:57:49;;;;;;;4.72;3.47;;;;;;;;;;5025357;28;20071;-72
2023/10/20 13:00:15;;;;;;;6.57;2.83;;;;;;;;;;5029843;28;20021;-72
2023/10/20 13:02:43;;;;;;;4.38;2.42;;;;;;;;;;5026032;28;20026;-72
2023/10/20 13:05:09;;;;;;;3.70;2.38;;;;;;;;;;5027406;28;20075;-71
2023/10/20 13:07:34;;;;;;;6.57;2.83;;;;;;;;;;5025738;28;20389;-71
2023/10/20 13:10:01;;;;;;;2.50;1.77;;;;;;;;;;5030114;28;20025;-72
2023/10/20 13:12:26;;;;;;;7.97;2.90;;;;;;;;;;5023467;28;20339;-72
2023/10/20 13:14:51;;;;;;;13.30;3.70;;;;;;;;;;5024717;28;20156;-72
2023/10/20 13:17:16;;;;;;;11.63;3.77;;;;;;;;;;5023330;28;20390;-72
2023/10/20 13:19:42;;;;;;;5.53;2.43;;;;;;;;;;5022929;28;20280;-72
2023/10/20 13:22:07;;;;;;;9.48;4.95;;;;;;;;;;5025648;28;20021;-72
2023/10/20 13:24:32;;;;;;;14.25;4.47;;;;;;;;;;5025384;28;20091;-72
2023/10/20 13:26:59;;;;;;;6.87;3.47;;;;;;;;;;5025736;28;20029;-72
2023/10/20 13:29:25;;;;;;;7.30;3.70;;;;;;;;;;5024771;28;20264;-72
2023/10/20 13:31:50;;;;;;;12.83;4.77;;;;;;;;;;5022563;28;20435;-72
2023/10/20 13:34:15;;;;;;;7.72;4.18;;;;;;;;;;5026227;28;20261;-72
2023/10/20 13:36:40;;;;;;;4.70;2.70;;;;;;;;;;5023633;28;20283;-72
2023/10/20 13:39:07;;;;;;;7.10;2.90;;;;;;;;;;5023638;28;20741;-72
2023/10/20 13:41:33;;;;;;;4.25;2.45;;;;;;;;;;5026046;28;20330;-72
2023/10/20 13:43:58;;;;;;;8.15;4.75;;;;;;;;;;5026450;28;20025;-72
2023/10/20 13:46:23;;;;;;;5.83;2.80;;;;;;;;;;5026998;28;20026;-72
2023/10/20 13:48:48;;;;;;;10.02;4.22;;;;;;;;;;5033138;28;20105;-72
2023/10/20 13:51:13;;;;;;;9.27;5.13;;;;;;;;;;5029697;28;20104;-72
2023/10/20 13:53:39;;;;;;;4.50;3.03;;;;;;;;;;5026137;28;20397;-71
2023/10/20 13:56:04;;;;;;;5.85;3.40;;;;;;;;;;5028330;28;20064;-72
2023/10/20 13:58:29;;;;;;;10.95;6.05;;;;;;;;;;5029174;28;21224;-71
2023/10/20 14:00:54;;;;;;;8.70;5.70;;;;;;;;;;5026606;28;20396;-72
2023/10/20 14:03:20;;;;;;;9.17;5.37;;;;;;;;;;5030079;28;20075;-72
2023/10/20 14:05:54;;;;;;;11.32;5.95;;;;;;;;;;5028575;28;20264;-71
2023/10/20 14:08:19;;;;;;;2.35;2.00;;;;;;;;;;5031472;28;20021;-71
2023/10/20 14:10:44;;;;;;;7.25;3.53;;;;;;;;;;5029000;28;20020;-72
2023/10/20 14:13:09;;;;;;;7.15;2.58;;;;;;;;;;5024889;28;20010;-71
2023/10/20 14:15:35;;;;;;;11.67;4.97;;;;;;;;;;5022729;28;20025;-72
2023/10/20 14:18:00;;;;;;;12.93;4.22;;;;;;;;;;5026020;28;20269;-72
2023/10/20 14:20:25;;;;;;;9.30;4.27;;;;;;;;;;5026338;28;20036;-72
2023/10/20 14:22:51;;;;;;;5.22;3.22;;;;;;;;;;5026513;28;20276;-72
2023/10/20 14:25:17;;;;;;;6.85;2.75;;;;;;;;;;5032704;28;20032;-72
2023/10/20 14:27:42;;;;;;;3.17;1.67;;;;;;;;;;5031481;28;20018;-71
2023/10/20 14:30:07;;;;;;;3.83;1.83;;;;;;;;;;5027680;28;20049;-72
2023/10/20 14:32:33;;;;;;;2.65;1.45;;;;;;;;;;5028965;28;20025;-72
2023/10/20 14:34:58;;;;;;;5.05;1.60;;;;;;;;;;5026798;28;20064;-71
2023/10/20 14:37:23;;;;;;;2.95;1.35;;;;;;;;;;5030816;28;20043;-72
2023/10/20 14:39:48;;;;;;;1.73;0.90;;;;;;;;;;5027372;28;20028;-72
2023/10/20 14:42:14;;;;;;;1.20;0.77;;;;;;;;;;5029447;28;20485;-72
2023/10/20 14:44:39;;;;;;;5.97;0.85;;;;;;;;;;5028004;28;20308;-72
2023/10/20 14:47:04;;;;;;;2.50;1.50;;;;;;;;;;5022344;28;20041;-72
2023/10/20 14:49:31;;;;;;;2.33;1.13;;;;;;;;;;5029040;28;20339;-72
2023/10/20 14:51:57;;;;;;;2.97;1.00;;;;;;;;;;5027801;28;20049;-71
2023/10/20 14:54:22;;;;;;;1.23;0.77;;;;;;;;;;5031302;28;20493;-73
2023/10/20 14:56:47;;;;;;;2.60;1.13;;;;;;;;;;5024720;28;20312;-72
2023/10/20 14:59:13;;;;;;;2.80;1.02;;;;;;;;;;5034070;28;20256;-71
2023/10/20 15:01:38;;;;;;;8.65;1.23;;;;;;;;;;5029402;28;20025;-72
2023/10/20 15:04:05;;;;;;;1.27;0.85;;;;;;;;;;5030400;28;20458;-72